Time;durP1;ratioP1;P1;durP2;ratioP2;P2;SDS_P1;SDS_P2;PMS_P1;PMS_P2;Temp;Humidity;BMP_temperature;BMP_pressure;BME280_temperature;BME280_humidity;BME280_pressure;Samples;Min_cycle;Max_cycle;Signal;HPM_P1;HPM_P2
2022/04/20 00:00:17;;;;;;;2.58;2.08;;;;;;;;;;4937934;29;20036;-76
2022/04/20 00:02:42;;;;;;;3.35;2.10;;;;;;;;;;4937832;29;20033;-77
2022/04/20 00:05:08;;;;;;;2.42;1.95;;;;;;;;;;4920296;29;20031;-76
2022/04/20 00:07:33;;;;;;;3.17;1.90;;;;;;;;;;4920716;29;20509;-78
2022/04/20 00:09:59;;;;;;;3.92;1.85;;;;;;;;;;4920597;29;20391;-75
2022/04/20 00:12:25;;;;;;;2.20;1.95;;;;;;;;;;4920260;29;20023;-77
2022/04/20 00:14:51;;;;;;;2.95;2.08;;;;;;;;;;4937219;29;20386;-76
2022/04/20 00:17:16;;;;;;;3.42;1.77;;;;;;;;;;4920007;29;20103;-76
2022/04/20 00:19:42;;;;;;;2.88;1.92;;;;;;;;;;4920038;29;20031;-76
2022/04/20 00:22:07;;;;;;;2.50;2.08;;;;;;;;;;4888719;29;20140;-77
2022/04/20 00:24:32;;;;;;;2.88;1.80;;;;;;;;;;4934757;29;20059;-76
2022/04/20 00:26:58;;;;;;;2.35;1.80;;;;;;;;;;4904440;29;20070;-76
2022/04/20 00:29:23;;;;;;;2.33;1.90;;;;;;;;;;4919870;29;20038;-76
2022/04/20 00:31:49;;;;;;;3.28;2.03;;;;;;;;;;4904388;29;20123;-75
2022/04/20 00:34:14;;;;;;;2.55;1.95;;;;;;;;;;4937071;29;20108;-76
2022/04/20 00:36:39;;;;;;;2.35;1.88;;;;;;;;;;4937224;29;20178;-75
2022/04/20 00:39:05;;;;;;;2.40;1.75;;;;;;;;;;4919605;29;20031;-75
2022/04/20 00:41:30;;;;;;;3.97;2.45;;;;;;;;;;4907089;29;20126;-75
2022/04/20 00:43:56;;;;;;;4.18;2.33;;;;;;;;;;4936526;29;20504;-77
2022/04/20 00:46:24;;;;;;;3.03;2.13;;;;;;;;;;4935588;29;20043;-76
2022/04/20 00:48:51;;;;;;;3.05;1.92;;;;;;;;;;4935365;29;20035;-75
2022/04/20 00:51:16;;;;;;;3.08;2.00;;;;;;;;;;4936459;29;20134;-75
2022/04/20 00:53:41;;;;;;;3.38;2.03;;;;;;;;;;4935143;29;20115;-75
2022/04/20 00:56:07;;;;;;;2.25;1.90;;;;;;;;;;4934988;29;20036;-76
2022/04/20 00:58:34;;;;;;;2.72;2.05;;;;;;;;;;4936430;29;20083;-75
2022/04/20 01:01:00;;;;;;;3.13;1.98;;;;;;;;;;4951503;29;20359;-75
2022/04/20 01:03:26;;;;;;;2.33;1.90;;;;;;;;;;4936348;29;20173;-75
2022/04/20 01:05:51;;;;;;;2.83;2.17;;;;;;;;;;4936505;29;20198;-76
2022/04/20 01:08:16;;;;;;;2.88;2.00;;;;;;;;;;4936370;29;20110;-76
2022/04/20 01:10:42;;;;;;;5.03;2.28;;;;;;;;;;4936590;29;20061;-76
2022/04/20 01:13:07;;;;;;;2.15;1.75;;;;;;;;;;4934823;29;20031;-76
2022/04/20 01:15:34;;;;;;;1.88;1.70;;;;;;;;;;4934947;29;20059;-77
2022/04/20 01:18:00;;;;;;;2.40;1.73;;;;;;;;;;4934983;29;20043;-76
2022/04/20 01:20:25;;;;;;;2.58;1.90;;;;;;;;;;4934806;29;20220;-76
2022/04/20 01:22:51;;;;;;;6.03;1.92;;;;;;;;;;4936064;29;20062;-76
2022/04/20 01:25:16;;;;;;;10.30;1.98;;;;;;;;;;4934796;29;20064;-76
2022/04/20 01:27:42;;;;;;;2.92;1.90;;;;;;;;;;4936076;29;20435;-76
2022/04/20 01:30:08;;;;;;;2.58;1.83;;;;;;;;;;4934665;29;20080;-76
2022/04/20 01:32:33;;;;;;;3.63;2.13;;;;;;;;;;4934829;29;20055;-76
2022/04/20 01:34:59;;;;;;;3.83;2.15;;;;;;;;;;4936142;29;20387;-76
2022/04/20 01:37:24;;;;;;;2.78;1.80;;;;;;;;;;4936029;29;20501;-76
2022/04/20 01:39:49;;;;;;;9.35;1.70;;;;;;;;;;4936315;29;20086;-76
2022/04/20 01:42:15;;;;;;;4.43;1.80;;;;;;;;;;4918815;29;20107;-76
2022/04/20 01:44:40;;;;;;;2.17;1.70;;;;;;;;;;4934383;29;20448;-75
2022/04/20 01:47:06;;;;;;;2.25;1.70;;;;;;;;;;4935798;29;20459;-75
2022/04/20 01:49:31;;;;;;;2.70;1.45;;;;;;;;;;4934389;29;20059;-75
2022/04/20 01:51:56;;;;;;;3.15;1.92;;;;;;;;;;4935748;29;20032;-75
2022/04/20 01:54:22;;;;;;;2.15;1.77;;;;;;;;;;4934439;29;20054;-76
2022/04/20 01:56:48;;;;;;;2.88;1.67;;;;;;;;;;4934510;29;20529;-75
2022/04/20 01:59:14;;;;;;;4.00;1.70;;;;;;;;;;4934418;29;20019;-76
2022/04/20 02:04:23;;;;;;;5.93;1.67;;;;;;;;;;4934731;29;20050;-75
2022/04/20 02:06:49;;;;;;;3.42;1.70;;;;;;;;;;4934372;29;20430;-76
2022/04/20 02:09:14;;;;;;;2.33;1.73;;;;;;;;;;4935546;29;20027;-76
2022/04/20 02:11:40;;;;;;;2.70;1.85;;;;;;;;;;4935672;29;20098;-76
2022/04/20 02:14:05;;;;;;;2.90;1.70;;;;;;;;;;4935261;29;20363;-75
2022/04/20 02:16:31;;;;;;;2.33;1.63;;;;;;;;;;4934250;29;20102;-75
2022/04/20 02:18:56;;;;;;;3.40;1.75;;;;;;;;;;4935258;29;20354;-76
2022/04/20 02:21:22;;;;;;;3.08;1.95;;;;;;;;;;4935405;29;20130;-76
2022/04/20 02:23:47;;;;;;;2.15;1.73;;;;;;;;;;4935620;29;20495;-76
2022/04/20 02:26:12;;;;;;;3.83;1.67;;;;;;;;;;4934080;29;20525;-75
2022/04/20 02:28:38;;;;;;;2.67;1.60;;;;;;;;;;4949624;29;20039;-76
2022/04/20 02:31:03;;;;;;;1.88;1.55;;;;;;;;;;4935139;29;20031;-75
2022/04/20 02:33:29;;;;;;;2.30;1.67;;;;;;;;;;4935010;29;20091;-76
2022/04/20 02:35:54;;;;;;;2.22;1.50;;;;;;;;;;4933617;29;20051;-75
2022/04/20 02:38:19;;;;;;;2.63;1.50;;;;;;;;;;4934992;29;20028;-75
2022/04/20 02:40:46;;;;;;;2.33;1.52;;;;;;;;;;4949226;28;20042;-77
2022/04/20 02:43:11;;;;;;;1.67;1.50;;;;;;;;;;4934734;29;20043;-76
2022/04/20 02:45:37;;;;;;;3.17;1.55;;;;;;;;;;4917793;29;20399;-76
2022/04/20 02:48:03;;;;;;;1.67;1.58;;;;;;;;;;4934419;29;20059;-76
2022/04/20 02:50:29;;;;;;;2.25;1.58;;;;;;;;;;4917915;29;20106;-76
2022/04/20 02:52:55;;;;;;;1.63;1.25;;;;;;;;;;4917673;29;20119;-76
2022/04/20 02:55:20;;;;;;;2.63;1.55;;;;;;;;;;4901767;29;20111;-76
2022/04/20 02:57:46;;;;;;;2.78;1.83;;;;;;;;;;4918136;29;20047;-76
2022/04/20 03:00:12;;;;;;;2.63;1.40;;;;;;;;;;4917738;29;20107;-76
2022/04/20 03:02:37;;;;;;;2.95;1.63;;;;;;;;;;4917855;29;20028;-76
2022/04/20 03:05:03;;;;;;;2.95;1.50;;;;;;;;;;4934777;29;20391;-76
2022/04/20 03:07:28;;;;;;;1.60;1.50;;;;;;;;;;4934639;29;20110;-76
2022/04/20 03:09:54;;;;;;;1.67;1.58;;;;;;;;;;4934684;29;20453;-76
2022/04/20 03:12:19;;;;;;;3.38;1.52;;;;;;;;;;4934889;29;20438;-76
2022/04/20 03:14:45;;;;;;;3.95;1.52;;;;;;;;;;4917488;29;20055;-76
2022/04/20 03:17:10;;;;;;;1.55;1.42;;;;;;;;;;4934513;29;20094;-76
2022/04/20 03:19:36;;;;;;;1.67;1.40;;;;;;;;;;4934468;29;20126;-76
2022/04/20 03:22:02;;;;;;;3.33;1.50;;;;;;;;;;4917693;29;20040;-75
2022/04/20 03:24:27;;;;;;;1.50;1.27;;;;;;;;;;4934361;29;20106;-76
2022/04/20 03:26:52;;;;;;;1.73;1.40;;;;;;;;;;4934466;29;20032;-76
2022/04/20 03:29:18;;;;;;;1.75;1.48;;;;;;;;;;4934745;29;20042;-76
2022/04/20 03:31:43;;;;;;;1.58;1.40;;;;;;;;;;4934316;29;20027;-75
2022/04/20 03:34:09;;;;;;;1.40;1.30;;;;;;;;;;4934343;29;20551;-75
2022/04/20 03:36:35;;;;;;;2.75;1.52;;;;;;;;;;4934501;29;20411;-75
2022/04/20 03:39:01;;;;;;;1.50;1.40;;;;;;;;;;4934374;29;20032;-75
2022/04/20 03:41:27;;;;;;;1.42;1.30;;;;;;;;;;4940214;29;20090;-76
2022/04/20 03:43:52;;;;;;;1.77;1.40;;;;;;;;;;4952294;29;20430;-75
2022/04/20 03:46:17;;;;;;;1.30;1.20;;;;;;;;;;4952173;29;20035;-76
2022/04/20 03:48:45;;;;;;;2.33;1.33;;;;;;;;;;4952127;29;20114;-76
2022/04/20 03:51:11;;;;;;;1.67;1.20;;;;;;;;;;4952318;29;20058;-76
2022/04/20 03:53:36;;;;;;;1.75;1.20;;;;;;;;;;4951902;29;20071;-76
2022/04/20 03:56:01;;;;;;;2.47;1.52;;;;;;;;;;4953408;28;20122;-76
2022/04/20 03:58:27;;;;;;;1.45;1.35;;;;;;;;;;4951953;28;20031;-76
2022/04/20 04:00:52;;;;;;;1.65;1.42;;;;;;;;;;4956453;28;20039;-76
2022/04/20 04:03:18;;;;;;;2.85;1.40;;;;;;;;;;4955435;29;20398;-76
2022/04/20 04:05:44;;;;;;;1.30;1.20;;;;;;;;;;4956834;28;20390;-76
2022/04/20 04:08:09;;;;;;;1.52;1.20;;;;;;;;;;4956515;29;20042;-77
2022/04/20 04:10:35;;;;;;;2.03;1.25;;;;;;;;;;4955869;29;20146;-78
2022/04/20 04:13:01;;;;;;;1.40;1.30;;;;;;;;;;4956924;28;20034;-77
2022/04/20 04:15:27;;;;;;;3.75;1.38;;;;;;;;;;4955579;29;20114;-77
2022/04/20 04:17:58;;;;;;;6.75;1.73;;;;;;;;;;4955401;29;20023;-77
2022/04/20 04:20:27;;;;;;;3.10;1.80;;;;;;;;;;4971857;28;20027;-77
2022/04/20 04:22:53;;;;;;;3.20;1.80;;;;;;;;;;4955306;29;20031;-77
2022/04/20 04:25:19;;;;;;;2.45;2.00;;;;;;;;;;4955456;29;20027;-76
2022/04/20 04:27:45;;;;;;;4.97;1.50;;;;;;;;;;4955189;29;20102;-77
2022/04/20 04:30:10;;;;;;;4.47;2.00;;;;;;;;;;4954925;28;20541;-77
2022/04/20 04:32:36;;;;;;;4.43;1.60;;;;;;;;;;4955483;29;20054;-75
2022/04/20 04:35:02;;;;;;;2.97;1.70;;;;;;;;;;4955074;29;20051;-77
2022/04/20 04:37:27;;;;;;;4.43;1.70;;;;;;;;;;4955168;29;20039;-77
2022/04/20 04:39:53;;;;;;;6.80;1.75;;;;;;;;;;4956599;28;20093;-77
2022/04/20 04:42:19;;;;;;;3.55;1.65;;;;;;;;;;4954790;29;20062;-77
2022/04/20 04:44:44;;;;;;;4.50;1.85;;;;;;;;;;4955295;29;20037;-77
2022/04/20 04:49:53;;;;;;;2.40;1.80;;;;;;;;;;4955116;29;20346;-77
2022/04/20 04:52:19;;;;;;;2.20;1.40;;;;;;;;;;4954898;29;20039;-77
2022/04/20 04:54:44;;;;;;;6.25;1.90;;;;;;;;;;4954852;29;20031;-77
2022/04/20 04:57:12;;;;;;;4.03;1.65;;;;;;;;;;4939251;29;20377;-76
2022/04/20 04:59:40;;;;;;;4.32;2.20;;;;;;;;;;4954977;28;20461;-77
2022/04/20 05:02:06;;;;;;;3.88;1.80;;;;;;;;;;4954498;29;20059;-76
2022/04/20 05:04:33;;;;;;;7.03;1.63;;;;;;;;;;4955917;28;20038;-77
2022/04/20 05:06:59;;;;;;;3.25;1.40;;;;;;;;;;4957166;28;20493;-76
2022/04/20 05:09:25;;;;;;;1.67;1.35;;;;;;;;;;4956443;28;20498;-76
2022/04/20 05:11:51;;;;;;;3.00;1.40;;;;;;;;;;4939940;28;20042;-77
2022/04/20 05:14:16;;;;;;;2.72;1.52;;;;;;;;;;4956143;29;20046;-77
2022/04/20 05:16:42;;;;;;;2.88;1.50;;;;;;;;;;4956014;29;20101;-76
2022/04/20 05:19:08;;;;;;;3.78;1.73;;;;;;;;;;4970867;28;20073;-77
2022/04/20 05:21:33;;;;;;;3.40;1.60;;;;;;;;;;4955740;29;20023;-76
2022/04/20 05:23:59;;;;;;;4.97;1.45;;;;;;;;;;4939270;29;20054;-78
2022/04/20 05:26:25;;;;;;;4.88;2.25;;;;;;;;;;4938385;29;20129;-77
2022/04/20 05:28:51;;;;;;;3.60;1.90;;;;;;;;;;4937896;28;20126;-77
2022/04/20 05:31:17;;;;;;;15.82;3.15;;;;;;;;;;4955162;29;20465;-78
2022/04/20 05:33:42;;;;;;;9.70;2.67;;;;;;;;;;4953871;29;20078;-75
2022/04/20 05:36:07;;;;;;;10.95;2.90;;;;;;;;;;4955136;29;20087;-75
2022/04/20 05:44:01;;;;;;;6.38;2.53;;;;;;;;;;4955572;29;20089;-75
2022/04/20 05:46:26;;;;;;;8.13;2.58;;;;;;;;;;4969675;28;20051;-77
2022/04/20 05:48:51;;;;;;;6.97;2.28;;;;;;;;;;4955005;28;20035;-76
2022/04/20 05:51:17;;;;;;;7.10;2.65;;;;;;;;;;4954753;29;20122;-78
2022/04/20 05:53:43;;;;;;;6.43;2.83;;;;;;;;;;4955005;28;20038;-76
2022/04/20 05:56:08;;;;;;;6.43;2.30;;;;;;;;;;4954092;29;20444;-77
2022/04/20 05:58:33;;;;;;;7.47;2.40;;;;;;;;;;4953769;29;20099;-78
2022/04/20 06:00:59;;;;;;;7.03;2.33;;;;;;;;;;4953570;29;20504;-77
2022/04/20 06:03:24;;;;;;;10.98;2.60;;;;;;;;;;4955160;28;20050;-77
2022/04/20 06:05:50;;;;;;;8.10;2.30;;;;;;;;;;4953140;29;20035;-77
2022/04/20 06:08:16;;;;;;;8.80;2.67;;;;;;;;;;4954655;28;20039;-77
2022/04/20 06:10:42;;;;;;;6.47;2.58;;;;;;;;;;4953132;29;20437;-76
2022/04/20 06:13:09;;;;;;;5.72;2.50;;;;;;;;;;4954825;28;20035;-76
2022/04/20 06:15:34;;;;;;;6.82;3.05;;;;;;;;;;4937205;29;20050;-75
2022/04/20 06:17:59;;;;;;;6.60;2.30;;;;;;;;;;4953274;29;20343;-76
2022/04/20 06:20:25;;;;;;;4.40;2.10;;;;;;;;;;4954557;29;20039;-78
2022/04/20 06:22:50;;;;;;;6.97;2.28;;;;;;;;;;4953751;28;20057;-78
2022/04/20 06:25:15;;;;;;;6.93;1.98;;;;;;;;;;4953178;29;20027;-76
2022/04/20 06:27:41;;;;;;;4.60;1.98;;;;;;;;;;4954248;29;20035;-77
2022/04/20 06:30:07;;;;;;;4.65;2.13;;;;;;;;;;4953905;28;20178;-77
2022/04/20 06:32:32;;;;;;;6.53;2.05;;;;;;;;;;4954048;28;20038;-76
2022/04/20 06:34:58;;;;;;;4.05;1.80;;;;;;;;;;4968521;28;20035;-77
2022/04/20 06:37:24;;;;;;;4.43;1.80;;;;;;;;;;4954362;29;20125;-77
2022/04/20 06:39:49;;;;;;;4.13;1.50;;;;;;;;;;4952710;29;20039;-77
2022/04/20 06:42:15;;;;;;;4.13;1.70;;;;;;;;;;4953860;28;20170;-76
2022/04/20 06:44:41;;;;;;;4.00;1.75;;;;;;;;;;4952238;29;20162;-76
2022/04/20 06:47:06;;;;;;;4.80;1.35;;;;;;;;;;4952729;29;20358;-78
2022/04/20 06:49:32;;;;;;;3.45;1.65;;;;;;;;;;4952795;29;20124;-77
2022/04/20 07:00:10;;;;;;;1.85;1.50;;;;;;;;;;4939244;29;20039;-76
2022/04/20 07:02:35;;;;;;;4.47;1.83;;;;;;;;;;4952301;29;20031;-76
2022/04/20 07:05:01;;;;;;;13.57;4.28;;;;;;;;;;4952195;29;20118;-78
2022/04/20 07:07:27;;;;;;;13.57;3.75;;;;;;;;;;4952458;29;20039;-77
2022/04/20 07:09:52;;;;;;;18.88;3.50;;;;;;;;;;4953655;28;20478;-77
2022/04/20 07:12:18;;;;;;;13.10;3.22;;;;;;;;;;4953639;29;20114;-77
2022/04/20 07:14:43;;;;;;;12.23;3.60;;;;;;;;;;4936150;29;20039;-77
2022/04/20 07:17:09;;;;;;;11.75;3.40;;;;;;;;;;4952343;29;20039;-78
2022/04/20 07:19:35;;;;;;;13.80;3.70;;;;;;;;;;4953718;29;20106;-77
2022/04/20 07:22:00;;;;;;;8.18;3.00;;;;;;;;;;4953617;29;20035;-78
2022/04/20 07:24:26;;;;;;;10.75;3.40;;;;;;;;;;4968496;28;20545;-76
2022/04/20 07:26:52;;;;;;;13.35;3.67;;;;;;;;;;4936230;29;20086;-78
2022/04/20 07:29:18;;;;;;;12.45;3.75;;;;;;;;;;4952074;28;20426;-77
2022/04/20 07:31:43;;;;;;;7.93;3.67;;;;;;;;;;4920175;29;20051;-77
2022/04/20 07:34:08;;;;;;;10.18;3.15;;;;;;;;;;4938148;29;20038;-76
2022/04/20 07:36:34;;;;;;;15.73;3.30;;;;;;;;;;4956150;29;20490;-77
2022/04/20 07:38:59;;;;;;;13.65;3.38;;;;;;;;;;4956219;29;20378;-76
2022/04/20 07:41:25;;;;;;;10.95;3.45;;;;;;;;;;4957034;28;20043;-77
2022/04/20 07:43:51;;;;;;;8.32;2.85;;;;;;;;;;4956040;29;20057;-76
2022/04/20 07:46:18;;;;;;;6.07;2.50;;;;;;;;;;4956014;29;20397;-77
2022/04/20 07:48:43;;;;;;;6.78;2.63;;;;;;;;;;4956168;29;20027;-77
2022/04/20 07:51:09;;;;;;;11.70;2.80;;;;;;;;;;4955955;29;20037;-76
2022/04/20 07:53:34;;;;;;;7.30;2.03;;;;;;;;;;4939790;29;20035;-78
2022/04/20 07:56:00;;;;;;;7.53;2.28;;;;;;;;;;4957175;29;20078;-77
2022/04/20 07:58:25;;;;;;;6.18;2.00;;;;;;;;;;4939820;29;20035;-78
2022/04/20 08:00:53;;;;;;;4.93;2.00;;;;;;;;;;4955858;29;20126;-78
2022/04/20 08:03:19;;;;;;;5.72;2.35;;;;;;;;;;4955717;29;20035;-78
2022/04/20 08:05:52;;;;;;;6.82;2.42;;;;;;;;;;4955900;29;20031;-78
2022/04/20 08:08:18;;;;;;;19.92;2.85;;;;;;;;;;4956914;28;20032;-78
2022/04/20 08:10:44;;;;;;;4.90;1.88;;;;;;;;;;4971597;28;20085;-78
2022/04/20 08:15:54;;;;;;;5.88;1.65;;;;;;;;;;4956119;29;20042;-78
2022/04/20 08:18:20;;;;;;;6.10;2.10;;;;;;;;;;4924210;29;20430;-78
2022/04/20 08:20:48;;;;;;;5.93;1.88;;;;;;;;;;4939710;29;20101;-78
2022/04/20 08:23:14;;;;;;;3.30;1.50;;;;;;;;;;4955357;29;20036;-76
2022/04/20 08:25:40;;;;;;;6.75;1.85;;;;;;;;;;4955257;29;20127;-77
2022/04/20 08:28:06;;;;;;;3.53;1.67;;;;;;;;;;4939098;29;20123;-79
2022/04/20 08:30:33;;;;;;;5.95;1.92;;;;;;;;;;4938970;29;19918;-78
2022/04/20 08:32:58;;;;;;;3.33;1.73;;;;;;;;;;4954889;29;20038;-78
2022/04/20 08:35:23;;;;;;;6.95;1.60;;;;;;;;;;4954858;29;20035;-79
2022/04/20 08:37:49;;;;;;;2.55;1.90;;;;;;;;;;4954886;29;20027;-78
2022/04/20 08:40:14;;;;;;;3.70;1.33;;;;;;;;;;4939079;29;20493;-78
2022/04/20 08:42:40;;;;;;;4.68;1.30;;;;;;;;;;4954687;29;20422;-78
2022/04/20 08:45:06;;;;;;;7.70;1.90;;;;;;;;;;4955600;28;20039;-76
2022/04/20 08:47:37;;;;;;;4.28;1.20;;;;;;;;;;4955447;29;20038;-77
2022/04/20 08:50:04;;;;;;;2.67;1.40;;;;;;;;;;4955393;29;20133;-77
2022/04/20 08:52:38;;;;;;;2.40;1.40;;;;;;;;;;4955121;29;20126;-77
2022/04/20 08:55:08;;;;;;;5.72;1.58;;;;;;;;;;4956530;28;20551;-77
2022/04/20 08:57:35;;;;;;;2.65;1.20;;;;;;;;;;4954808;29;20094;-77
2022/04/20 09:00:01;;;;;;;1.92;1.33;;;;;;;;;;4955000;28;20474;-77
2022/04/20 09:02:28;;;;;;;4.93;1.33;;;;;;;;;;4955154;29;20035;-76
2022/04/20 09:04:55;;;;;;;1.20;1.02;;;;;;;;;;4954986;28;20058;-78
2022/04/20 09:07:21;;;;;;;2.03;1.15;;;;;;;;;;4955196;28;20094;-76
2022/04/20 09:09:46;;;;;;;2.38;1.60;;;;;;;;;;4954691;29;20054;-76
2022/04/20 09:12:17;;;;;;;2.17;1.17;;;;;;;;;;4956216;29;20086;-77
2022/04/20 09:14:45;;;;;;;1.67;1.10;;;;;;;;;;4954692;29;20034;-78
2022/04/20 09:17:15;;;;;;;1.63;1.27;;;;;;;;;;4954809;29;20034;-77
2022/04/20 09:19:41;;;;;;;1.75;1.65;;;;;;;;;;4938935;29;20031;-77
2022/04/20 09:22:23;;;;;;;1.98;1.40;;;;;;;;;;4954529;29;20355;-76
2022/04/20 09:25:07;;;;;;;2.90;1.23;;;;;;;;;;4939434;29;20038;-77
2022/04/20 09:27:39;;;;;;;3.17;1.23;;;;;;;;;;4971129;28;20110;-78
2022/04/20 09:30:09;;;;;;;1.73;1.10;;;;;;;;;;4956026;28;20086;-79
2022/04/20 09:32:36;;;;;;;3.80;1.35;;;;;;;;;;4954980;29;20081;-77
2022/04/20 09:35:08;;;;;;;4.88;1.27;;;;;;;;;;4955981;28;20038;-78
2022/04/20 09:37:36;;;;;;;2.08;1.35;;;;;;;;;;4954978;29;20031;-79
2022/04/20 09:40:04;;;;;;;8.30;1.15;;;;;;;;;;4938860;29;20027;-78
2022/04/20 09:42:31;;;;;;;1.58;1.20;;;;;;;;;;4954169;29;20062;-77
2022/04/20 09:45:01;;;;;;;1.15;1.10;;;;;;;;;;4955402;28;20069;-76
2022/04/20 09:50:22;;;;;;;1.92;1.20;;;;;;;;;;4954106;29;20050;-77
2022/04/20 09:52:49;;;;;;;1.55;1.10;;;;;;;;;;4953576;29;20481;-77
2022/04/20 09:55:33;;;;;;;1.65;1.10;;;;;;;;;;4953640;29;20106;-78
2022/04/20 09:58:18;;;;;;;3.58;1.30;;;;;;;;;;4952564;28;20049;-77
2022/04/20 10:00:53;;;;;;;2.22;1.20;;;;;;;;;;4954908;29;20086;-77
2022/04/20 10:03:26;;;;;;;26.88;6.18;;;;;;;;;;4953389;29;20027;-76
2022/04/20 10:05:52;;;;;;;15.32;4.95;;;;;;;;;;4954822;29;20042;-77
2022/04/20 10:08:18;;;;;;;18.55;5.38;;;;;;;;;;4937317;29;20023;-78
2022/04/20 10:10:44;;;;;;;22.35;7.00;;;;;;;;;;4953298;28;20113;-78
2022/04/20 10:13:10;;;;;;;15.25;4.38;;;;;;;;;;4953192;29;20100;-76
2022/04/20 10:18:25;;;;;;;11.43;3.60;;;;;;;;;;4953501;29;20043;-76
2022/04/20 10:20:55;;;;;;;15.80;4.30;;;;;;;;;;4953165;29;20027;-77
2022/04/20 10:23:22;;;;;;;11.20;3.42;;;;;;;;;;4953275;29;20023;-76
2022/04/20 10:25:52;;;;;;;15.32;4.10;;;;;;;;;;4953082;29;20031;-76
2022/04/20 10:28:23;;;;;;;10.93;3.47;;;;;;;;;;4936965;29;20050;-75
2022/04/20 10:31:13;;;;;;;7.82;2.90;;;;;;;;;;4954541;28;20434;-76
2022/04/20 10:33:40;;;;;;;8.45;3.03;;;;;;;;;;4952701;29;20125;-76
2022/04/20 10:36:11;;;;;;;8.93;2.75;;;;;;;;;;4952899;29;20362;-75
2022/04/20 10:38:37;;;;;;;7.40;2.80;;;;;;;;;;4953067;29;20058;-75
2022/04/20 10:41:13;;;;;;;8.80;2.78;;;;;;;;;;4952368;28;20047;-76
2022/04/20 10:43:42;;;;;;;5.75;2.42;;;;;;;;;;4952841;29;20346;-75
2022/04/20 10:46:14;;;;;;;6.05;2.00;;;;;;;;;;4952692;28;20023;-76
2022/04/20 10:48:46;;;;;;;6.05;2.28;;;;;;;;;;4952739;29;20486;-76
2022/04/20 10:51:14;;;;;;;3.55;1.70;;;;;;;;;;4953256;28;20035;-74
2022/04/20 10:53:43;;;;;;;3.95;1.90;;;;;;;;;;4936920;29;20446;-74
2022/04/20 10:56:09;;;;;;;6.50;2.40;;;;;;;;;;4937311;29;20385;-77
2022/04/20 10:58:35;;;;;;;2.88;1.58;;;;;;;;;;4936754;29;20031;-75
2022/04/20 11:01:08;;;;;;;7.15;2.17;;;;;;;;;;4954101;28;20118;-76
2022/04/20 11:03:53;;;;;;;3.33;1.63;;;;;;;;;;4952771;28;20041;-76
2022/04/20 11:06:19;;;;;;;3.10;1.73;;;;;;;;;;4952491;29;20115;-76
2022/04/20 11:08:44;;;;;;;3.55;1.75;;;;;;;;;;4952149;29;20126;-75
2022/04/20 11:19:54;;;;;;;3.92;1.33;;;;;;;;;;4952746;29;20144;-76
2022/04/20 11:22:21;;;;;;;8.05;1.75;;;;;;;;;;4952748;29;20027;-75
2022/04/20 11:24:47;;;;;;;2.95;1.45;;;;;;;;;;4952273;29;20118;-75
2022/04/20 11:27:13;;;;;;;2.08;1.40;;;;;;;;;;4936620;29;20039;-76
2022/04/20 11:29:43;;;;;;;3.92;1.73;;;;;;;;;;4952056;28;20439;-76
2022/04/20 11:32:09;;;;;;;3.58;1.52;;;;;;;;;;4953401;28;20038;-76
2022/04/20 11:34:36;;;;;;;2.53;1.60;;;;;;;;;;4952378;29;20019;-76
2022/04/20 11:37:06;;;;;;;7.13;1.60;;;;;;;;;;4953786;28;20059;-76
2022/04/20 11:39:32;;;;;;;2.70;1.30;;;;;;;;;;4952307;29;20031;-75
2022/04/20 11:42:02;;;;;;;4.10;1.65;;;;;;;;;;4952106;29;20150;-78
2022/04/20 11:44:31;;;;;;;3.45;1.23;;;;;;;;;;4936622;29;20115;-75
2022/04/20 11:47:07;;;;;;;4.82;1.85;;;;;;;;;;4952312;29;20038;-75
2022/04/20 11:49:36;;;;;;;1.40;1.30;;;;;;;;;;4952221;29;20027;-75
2022/04/20 11:52:06;;;;;;;1.45;1.20;;;;;;;;;;4952146;29;20027;-75
2022/04/20 11:54:32;;;;;;;1.30;1.20;;;;;;;;;;4952447;29;20031;-76
2022/04/20 11:56:58;;;;;;;4.47;1.30;;;;;;;;;;4952139;29;20031;-76
2022/04/20 11:59:27;;;;;;;2.65;1.20;;;;;;;;;;4953346;28;20509;-76
2022/04/20 12:01:53;;;;;;;3.58;1.40;;;;;;;;;;4953387;28;20038;-77
2022/04/20 12:04:20;;;;;;;2.08;1.10;;;;;;;;;;4953253;29;20404;-76
2022/04/20 12:06:56;;;;;;;1.98;1.15;;;;;;;;;;4953677;28;20467;-76
2022/04/20 12:09:28;;;;;;;2.47;1.45;;;;;;;;;;4952176;29;20035;-76
2022/04/20 12:12:00;;;;;;;2.30;1.20;;;;;;;;;;4952427;29;20027;-75
2022/04/20 12:14:34;;;;;;;2.70;1.20;;;;;;;;;;4952090;29;20541;-75
2022/04/20 12:17:05;;;;;;;2.42;1.50;;;;;;;;;;4952046;29;20035;-75
2022/04/20 12:19:32;;;;;;;1.83;1.30;;;;;;;;;;4952301;28;20027;-76
2022/04/20 12:22:05;;;;;;;1.70;1.40;;;;;;;;;;4939247;29;20038;-76
2022/04/20 12:24:31;;;;;;;1.27;1.17;;;;;;;;;;4955790;29;20111;-76
2022/04/20 12:26:57;;;;;;;2.28;1.33;;;;;;;;;;4939422;29;20054;-77
2022/04/20 12:29:28;;;;;;;1.63;1.40;;;;;;;;;;4955259;28;20401;-76
2022/04/20 12:31:57;;;;;;;2.70;1.45;;;;;;;;;;4955506;29;20078;-76
2022/04/20 12:34:25;;;;;;;2.45;1.10;;;;;;;;;;4955468;29;20023;-75
2022/04/20 12:36:51;;;;;;;2.35;1.25;;;;;;;;;;4971832;28;20093;-76
2022/04/20 12:39:45;;;;;;;1.20;1.10;;;;;;;;;;4956548;28;20069;-76
2022/04/20 12:42:12;;;;;;;1.77;1.27;;;;;;;;;;4953561;28;20061;-76
2022/04/20 12:44:51;;;;;;;2.58;1.20;;;;;;;;;;4955527;29;20047;-77
2022/04/20 12:47:16;;;;;;;1.55;1.17;;;;;;;;;;4956523;28;20031;-77
2022/04/20 12:49:45;;;;;;;1.30;1.20;;;;;;;;;;4956277;28;20030;-76
2022/04/20 12:52:12;;;;;;;1.25;1.13;;;;;;;;;;4954827;28;20159;-76
2022/04/20 12:54:38;;;;;;;1.67;1.10;;;;;;;;;;4956057;28;20016;-76
2022/04/20 13:03:04;;;;;;;3.08;1.20;;;;;;;;;;4942070;29;20180;-76
2022/04/20 13:05:31;;;;;;;1.48;1.35;;;;;;;;;;4954272;29;20051;-77
2022/04/20 13:07:57;;;;;;;1.30;1.15;;;;;;;;;;4938444;29;20109;-76
2022/04/20 13:10:23;;;;;;;1.45;1.10;;;;;;;;;;4938521;29;20039;-75
2022/04/20 13:12:52;;;;;;;0.90;0.90;;;;;;;;;;4938586;29;20042;-75
2022/04/20 13:15:18;;;;;;;1.00;1.00;;;;;;;;;;4954634;29;20050;-75
2022/04/20 13:17:44;;;;;;;1.75;1.30;;;;;;;;;;4954438;29;20089;-76
2022/04/20 13:20:10;;;;;;;4.50;1.48;;;;;;;;;;4955456;28;20482;-76
2022/04/20 13:22:36;;;;;;;1.30;1.10;;;;;;;;;;4953994;28;20041;-77
2022/04/20 13:27:54;;;;;;;2.45;1.08;;;;;;;;;;4940706;29;20053;-75
2022/04/20 13:30:24;;;;;;;1.00;1.00;;;;;;;;;;4955147;28;20046;-76
2022/04/20 13:32:50;;;;;;;1.13;1.05;;;;;;;;;;4953863;28;20031;-76
2022/04/20 13:35:15;;;;;;;1.67;1.02;;;;;;;;;;4937845;29;20035;-77
2022/04/20 13:37:41;;;;;;;1.05;1.00;;;;;;;;;;4953719;29;20063;-76
2022/04/20 13:40:07;;;;;;;0.93;0.93;;;;;;;;;;4955311;28;20122;-76
2022/04/20 13:42:32;;;;;;;1.67;1.00;;;;;;;;;;4953590;28;20055;-77
2022/04/20 13:44:57;;;;;;;1.85;1.10;;;;;;;;;;4937794;29;20042;-76
2022/04/20 13:47:23;;;;;;;3.28;0.90;;;;;;;;;;4953978;29;20111;-76
2022/04/20 13:49:48;;;;;;;3.45;1.15;;;;;;;;;;4955250;29;20027;-75
2022/04/20 13:52:14;;;;;;;2.35;1.17;;;;;;;;;;4953835;29;20027;-74
2022/04/20 13:54:39;;;;;;;1.25;1.15;;;;;;;;;;4969676;28;20454;-75
2022/04/20 13:57:05;;;;;;;2.45;1.30;;;;;;;;;;4937925;29;20090;-75
2022/04/20 13:59:30;;;;;;;9.13;1.20;;;;;;;;;;4953763;29;20392;-75
2022/04/20 14:01:55;;;;;;;2.42;1.25;;;;;;;;;;4954900;29;20561;-74
2022/04/20 14:04:21;;;;;;;2.63;1.30;;;;;;;;;;4953579;29;20110;-75
2022/04/20 14:06:46;;;;;;;2.50;1.35;;;;;;;;;;4953358;29;20383;-75
2022/04/20 14:09:12;;;;;;;2.22;1.52;;;;;;;;;;4955002;29;20036;-75
2022/04/20 14:11:37;;;;;;;3.78;1.42;;;;;;;;;;4969479;28;20085;-76
2022/04/20 14:14:02;;;;;;;2.90;1.30;;;;;;;;;;4953660;29;20035;-76
2022/04/20 14:16:30;;;;;;;4.55;1.60;;;;;;;;;;4954764;28;20035;-76
2022/04/20 14:18:56;;;;;;;1.42;1.08;;;;;;;;;;4937752;29;20035;-77
2022/04/20 14:21:22;;;;;;;2.17;1.27;;;;;;;;;;4953496;29;20031;-76
2022/04/20 14:23:47;;;;;;;1.00;1.00;;;;;;;;;;4953630;29;20486;-75
2022/04/20 14:34:25;;;;;;;3.07;1.20;;;;;;;;;;4953751;29;20419;-77
2022/04/20 14:36:50;;;;;;;12.65;1.40;;;;;;;;;;4937033;29;20277;-75
2022/04/20 14:39:15;;;;;;;1.88;1.20;;;;;;;;;;4953444;29;20034;-76
2022/04/20 14:41:41;;;;;;;1.83;1.17;;;;;;;;;;4968704;28;20163;-76
2022/04/20 14:44:07;;;;;;;3.17;1.20;;;;;;;;;;4953999;28;20051;-76
2022/04/20 14:46:32;;;;;;;1.40;1.00;;;;;;;;;;4954701;28;20120;-76
2022/04/20 14:48:58;;;;;;;1.33;1.08;;;;;;;;;;4954217;29;20034;-76
2022/04/20 14:51:23;;;;;;;3.92;1.23;;;;;;;;;;4936885;29;20118;-76
2022/04/20 14:53:49;;;;;;;1.20;0.95;;;;;;;;;;4968891;28;20031;-76
2022/04/20 14:56:15;;;;;;;1.83;1.20;;;;;;;;;;4954196;28;20027;-76
2022/04/20 14:58:40;;;;;;;2.80;1.30;;;;;;;;;;4954273;29;20167;-76
2022/04/20 15:01:06;;;;;;;1.42;1.00;;;;;;;;;;4952948;29;20035;-77
2022/04/20 15:03:31;;;;;;;1.33;1.00;;;;;;;;;;4954317;28;20035;-76
2022/04/20 15:05:57;;;;;;;2.22;1.10;;;;;;;;;;4954031;29;20047;-76
2022/04/20 15:08:22;;;;;;;1.80;1.10;;;;;;;;;;4952621;29;20043;-76
2022/04/20 15:10:50;;;;;;;1.50;1.15;;;;;;;;;;4936716;29;20133;-76
2022/04/20 15:13:16;;;;;;;1.25;1.15;;;;;;;;;;4936983;29;20057;-77
2022/04/20 15:15:42;;;;;;;1.33;1.20;;;;;;;;;;4936906;28;20031;-77
2022/04/20 15:18:07;;;;;;;1.98;1.25;;;;;;;;;;4952708;29;20038;-77
2022/04/20 15:20:32;;;;;;;3.83;1.25;;;;;;;;;;4953950;29;20035;-80
2022/04/20 15:22:58;;;;;;;1.38;1.27;;;;;;;;;;4953590;28;20059;-77
2022/04/20 15:25:24;;;;;;;1.13;1.00;;;;;;;;;;4952441;29;20035;-80
2022/04/20 15:27:49;;;;;;;1.70;1.10;;;;;;;;;;4953532;28;20078;-76
2022/04/20 15:30:15;;;;;;;2.67;1.02;;;;;;;;;;4953346;28;20042;-77